CheckWX is a tool to help pilots better visualize weather data.  It is not intended as a substitute for an official pre-flight weather briefing.

15:32:32 UTC

KGGI METAR
Grinnell Regional Airport
Grinnell, Iowa, USA
Current

18 mins ago

KGGI 261515Z AUTO 26005KT 3/4SM BR OVC002 M04/M04 A2998 RMK AO2 T10381043
Observed
Jan-26 @ 15:15 UTC
Wind
  • 260° at 5 KTS
Visibility
3/4 SM
Flight Rules
LIFR
Conditions
Mist
Cloud Levels
  • Overcast at 200' AGL
Temperature
-4°C / 25°F
Dewpoint
-4°C / 25°F
Humidity
100%
Altimeter
29.98" Hg
Pressure
1015.22 hPa
Previous

38 mins ago

KGGI 261455Z AUTO 00000KT 1/2SM FZFG OVC002 M04/M05 A2997 RMK AO2 T10411046
Observed
Jan-26 @ 14:55 UTC
Visibility
1/2 SM
Flight Rules
LIFR
Conditions
Freezing Fog
Cloud Levels
  • Overcast at 200' AGL
Temperature
-4°C / 25°F
Dewpoint
-5°C / 23°F
Humidity
93%
Altimeter
29.97" Hg
Pressure
1014.92 hPa
Previous

58 mins ago

KGGI 261435Z AUTO 00000KT 3/4SM BR OVC002 M04/M05 A2997 RMK AO2 T10421047
Observed
Jan-26 @ 14:35 UTC
Visibility
3/4 SM
Flight Rules
LIFR
Conditions
Mist
Cloud Levels
  • Overcast at 200' AGL
Temperature
-4°C / 25°F
Dewpoint
-5°C / 23°F
Humidity
93%
Altimeter
29.97" Hg
Pressure
1014.92 hPa